Pagrindinis puslapis
METAR-TAF:

METAR-TAF

Oro uostai :

Oro pajėgų bazė

Santosas, San Paulas, Brazilija

platuma: 23-56S, ilguma: 046-18W, Aukštis: 3 m

Dabartinis oras

Ataskaita buvo paskelbta 8 valandos ir 22 minutes, ne 20:00 UTC
Vėjas 8 kt iš Pietų
Temperatūra 21°C
Drėgmė 60%
Slėgis 1020 hPa
Matomumas 10 km arba daugiau
nėra debesų žemiau 1500 m ir nėra kamuolinių lietaus debesų

METAR: SBST 282000Z 17008KT CAVOK 21/13 Q1020

Laikas: 01:22 (04:22 UTC)


TAF: trūkstamas

Orai ataskaitas ir orų prognozės (METAR, TAF).

turimą stotys yra geltonos ir raudonos taškus žemėlapyje.

Perkelti pele per norėdami pamatyti stoties vardą.

Tada spustelėkite, norėdami matyti oro stebėjimo ir prognozės.

Norėdami pakeisti žemėlapį: spustelėkite ant žalios mygtukų su juodo kryžiaus žemyn,; žalią mygtuką su brūkšneliu, jei norite nutolinti; arba žalių rodyklių gretimoms žemėlapius.


METAR-TAF: